createdAt,value
2023-02-02T00:01:20.043Z,3.26
2023-02-02T00:03:49.047Z,3.19
2023-02-02T00:06:18.381Z,3.15
2023-02-02T00:08:46.415Z,3.19
2023-02-02T00:11:14.376Z,3.38
2023-02-02T00:13:42.763Z,3.17
2023-02-02T00:16:42.530Z,3.39
2023-02-02T00:19:12.540Z,3.33
2023-02-02T00:21:42.663Z,3.30
2023-02-02T00:24:11.841Z,3.27
2023-02-02T00:26:40.957Z,3.38
2023-02-02T00:29:15.835Z,3.42
2023-02-02T00:31:43.738Z,3.61
2023-02-02T00:34:13.742Z,3.61
2023-02-02T00:36:44.020Z,3.53
2023-02-02T00:39:14.979Z,3.66
2023-02-02T00:41:42.947Z,3.70
2023-02-02T00:44:28.601Z,3.81
2023-02-02T00:46:56.530Z,3.83
2023-02-02T00:49:24.793Z,3.91
2023-02-02T00:51:54.190Z,4.02
2023-02-02T00:54:23.191Z,4.18
2023-02-02T00:56:51.112Z,4.18
2023-02-02T00:59:19.393Z,4.32
2023-02-02T01:01:47.818Z,4.27
2023-02-02T01:04:15.859Z,4.30
2023-02-02T01:06:43.732Z,4.42
2023-02-02T01:09:13.047Z,4.55
2023-02-02T01:11:40.933Z,4.58
2023-02-02T01:14:09.037Z,4.58
2023-02-02T01:16:38.041Z,4.68
2023-02-02T01:19:06.029Z,4.74
2023-02-02T01:21:34.167Z,4.75
2023-02-02T01:24:02.144Z,4.77
2023-02-02T01:26:31.532Z,4.94
2023-02-02T01:28:59.489Z,5.01
2023-02-02T01:31:27.551Z,4.87
2023-02-02T01:33:55.451Z,5.03
2023-02-02T01:36:25.181Z,5.13
2023-02-02T01:38:53.347Z,5.15
2023-02-02T01:41:23.708Z,5.18
2023-02-02T01:43:56.164Z,5.23
2023-02-02T01:46:26.079Z,5.35
2023-02-02T01:48:59.819Z,5.24
2023-02-02T01:51:35.919Z,5.36
2023-02-02T01:54:06.761Z,5.41
2023-02-02T01:56:38.500Z,5.44
2023-02-02T01:59:08.692Z,5.37
2023-02-02T02:01:36.565Z,5.47
2023-02-02T02:04:04.751Z,5.51
2023-02-02T02:06:32.883Z,5.47
2023-02-02T02:09:03.879Z,5.45
2023-02-02T02:11:32.867Z,5.24
2023-02-02T02:14:20.601Z,5.34
2023-02-02T02:17:01.260Z,5.31
2023-02-02T02:20:25.058Z,5.26
2023-02-02T02:23:49.186Z,5.25
2023-02-02T02:26:46.284Z,5.33
2023-02-02T02:29:35.618Z,5.30
2023-02-02T02:32:20.969Z,5.29
2023-02-02T02:34:56.265Z,5.32
2023-02-02T02:37:32.909Z,5.45
2023-02-02T02:40:07.664Z,5.45
2023-02-02T02:42:39.825Z,5.48
2023-02-02T02:45:11.743Z,5.58
2023-02-02T02:47:43.415Z,5.60
2023-02-02T02:50:12.471Z,5.63
2023-02-02T02:52:41.610Z,5.77
2023-02-02T02:55:17.704Z,5.75
2023-02-02T02:58:04.050Z,5.80
2023-02-02T03:00:41.505Z,5.74
2023-02-02T03:03:24.108Z,5.90
2023-02-02T03:06:00.953Z,5.94
2023-02-02T03:08:41.500Z,5.96
2023-02-02T03:11:16.917Z,6.10
2023-02-02T03:13:45.615Z,6.10
2023-02-02T03:16:15.675Z,6.15
2023-02-02T03:18:45.287Z,6.15
2023-02-02T03:21:13.348Z,6.05
2023-02-02T03:23:41.355Z,6.25
2023-02-02T03:26:09.262Z,6.30
2023-02-02T03:28:37.581Z,6.25
2023-02-02T03:31:06.891Z,6.32
2023-02-02T03:33:37.890Z,6.20
2023-02-02T03:36:08.062Z,6.16
2023-02-02T03:38:36.012Z,6.22
2023-02-02T03:41:04.252Z,6.10
2023-02-02T03:43:33.051Z,6.00
2023-02-02T03:46:04.356Z,5.90
2023-02-02T03:48:33.002Z,5.58
2023-02-02T03:51:01.053Z,5.34
2023-02-02T03:53:30.481Z,5.13
2023-02-02T03:55:58.471Z,5.05
2023-02-02T03:58:26.695Z,4.91
2023-02-02T04:00:55.685Z,4.89
2023-02-02T04:03:23.708Z,4.93
2023-02-02T04:05:52.034Z,4.81
2023-02-02T04:08:20.105Z,4.83
2023-02-02T04:10:49.944Z,4.75
2023-02-02T04:13:17.928Z,4.81
2023-02-02T04:15:46.868Z,4.71
2023-02-02T04:18:15.756Z,4.75
2023-02-02T04:20:43.852Z,4.67
2023-02-02T04:23:11.709Z,4.59
2023-02-02T04:25:40.814Z,4.61
2023-02-02T04:28:10.345Z,4.44
2023-02-02T04:30:38.403Z,4.59
2023-02-02T04:33:06.400Z,4.57
2023-02-02T04:35:35.291Z,4.55
2023-02-02T04:38:03.349Z,4.52
2023-02-02T04:40:31.210Z,4.54
2023-02-02T04:42:59.453Z,4.42
2023-02-02T04:45:28.842Z,4.39
2023-02-02T04:47:58.911Z,4.43
2023-02-02T04:50:28.115Z,4.47
2023-02-02T04:52:56.187Z,4.46
2023-02-02T04:55:26.675Z,4.50
2023-02-02T04:57:54.800Z,4.52
2023-02-02T05:00:23.960Z,4.40
2023-02-02T05:02:53.232Z,4.52
2023-02-02T05:05:22.380Z,4.36
2023-02-02T05:07:54.308Z,4.33
2023-02-02T05:10:27.958Z,4.33
2023-02-02T05:12:56.841Z,4.49
2023-02-02T05:15:24.935Z,4.34
2023-02-02T05:17:55.482Z,4.52
2023-02-02T05:20:23.609Z,4.48
2023-02-02T05:22:51.522Z,4.54
2023-02-02T05:25:19.601Z,4.47
2023-02-02T05:27:47.817Z,4.58
2023-02-02T05:30:16.160Z,4.54
2023-02-02T05:32:44.048Z,4.44
2023-02-02T05:35:15.139Z,4.46
2023-02-02T05:37:44.244Z,4.52
2023-02-02T05:40:13.003Z,4.48
2023-02-02T05:42:40.979Z,4.55
2023-02-02T05:45:09.886Z,4.46
2023-02-02T05:47:37.749Z,4.53
2023-02-02T05:50:06.367Z,4.53
2023-02-02T05:52:40.945Z,4.50
2023-02-02T05:55:11.721Z,4.48
2023-02-02T05:57:40.789Z,4.40
2023-02-02T06:00:10.163Z,4.47
2023-02-02T06:02:38.139Z,4.50
2023-02-02T06:05:07.015Z,4.49
2023-02-02T06:07:36.454Z,4.40
2023-02-02T06:10:04.819Z,4.49
2023-02-02T06:12:32.830Z,4.35
2023-02-02T06:15:15.077Z,4.44
2023-02-02T06:17:43.177Z,4.43
2023-02-02T06:20:12.022Z,4.48
2023-02-02T06:22:41.213Z,4.44
2023-02-02T06:25:15.458Z,4.46
2023-02-02T06:27:45.235Z,4.52
2023-02-02T06:30:16.610Z,4.46
2023-02-02T06:32:44.840Z,4.40
2023-02-02T06:35:12.979Z,4.54
2023-02-02T06:37:42.613Z,4.52
2023-02-02T06:40:11.902Z,4.58
2023-02-02T06:42:41.065Z,4.58
2023-02-02T06:45:10.049Z,4.43
2023-02-02T06:47:38.028Z,4.61
2023-02-02T06:50:06.515Z,4.54
2023-02-02T06:52:34.569Z,4.57
2023-02-02T06:55:04.099Z,4.55
2023-02-02T06:57:32.129Z,4.57
2023-02-02T07:00:00.177Z,4.57
2023-02-02T07:02:28.091Z,4.58
2023-02-02T07:04:56.495Z,4.56
2023-02-02T07:07:24.371Z,4.61
2023-02-02T07:09:58.390Z,4.44
2023-02-02T07:12:28.304Z,4.70
2023-02-02T07:14:56.432Z,4.68
2023-02-02T07:17:24.606Z,4.72
2023-02-02T07:19:52.699Z,4.61
2023-02-02T07:22:20.564Z,4.65
2023-02-02T07:24:48.546Z,4.69
2023-02-02T07:27:16.656Z,4.71
2023-02-02T07:29:45.931Z,4.74
2023-02-02T07:32:14.190Z,4.70
2023-02-02T07:34:46.353Z,4.63
2023-02-02T07:37:14.458Z,4.75
2023-02-02T07:39:43.330Z,4.73
2023-02-02T07:42:12.462Z,4.73
2023-02-02T07:44:40.438Z,4.66
2023-02-02T07:47:10.114Z,4.71
2023-02-02T07:49:38.243Z,4.83
2023-02-02T07:52:07.305Z,4.77
2023-02-02T07:54:35.348Z,4.87
2023-02-02T07:57:03.194Z,4.86
2023-02-02T07:59:32.420Z,4.86
2023-02-02T08:02:00.681Z,4.95
2023-02-02T08:04:30.261Z,4.95
2023-02-02T08:06:58.237Z,4.89
2023-02-02T08:09:26.419Z,4.99
2023-02-02T08:12:01.649Z,5.09
2023-02-02T08:14:30.278Z,5.07
2023-02-02T08:16:58.371Z,5.12
2023-02-02T08:19:26.445Z,4.96
2023-02-02T08:21:57.223Z,5.00
2023-02-02T08:24:25.180Z,5.08
2023-02-02T08:26:53.392Z,5.07
2023-02-02T08:29:24.598Z,5.10
2023-02-02T08:31:54.098Z,5.03
2023-02-02T08:34:22.045Z,5.12
2023-02-02T08:36:51.204Z,5.13
2023-02-02T08:39:20.433Z,5.18
2023-02-02T08:41:48.326Z,5.28
2023-02-02T08:44:17.360Z,5.17
2023-02-02T08:46:47.338Z,5.35
2023-02-02T08:49:16.330Z,5.31
2023-02-02T08:51:44.332Z,5.27
2023-02-02T08:54:12.204Z,5.40
2023-02-02T08:56:41.422Z,5.52
2023-02-02T08:59:09.659Z,5.41
2023-02-02T09:01:37.955Z,5.36
2023-02-02T09:04:15.901Z,5.53
2023-02-02T09:06:44.386Z,5.55
2023-02-02T09:09:15.964Z,5.56
2023-02-02T09:11:45.405Z,5.60
2023-02-02T09:14:15.070Z,5.78
2023-02-02T09:16:43.430Z,5.92
2023-02-02T09:19:11.814Z,5.69
2023-02-02T09:21:40.582Z,5.85
2023-02-02T09:24:16.475Z,5.79
2023-02-02T09:26:46.418Z,5.84
2023-02-02T09:29:17.864Z,5.95
2023-02-02T09:31:47.018Z,5.88
2023-02-02T09:34:16.491Z,5.72
2023-02-02T09:36:51.843Z,5.81
2023-02-02T09:39:20.950Z,5.99
2023-02-02T09:42:29.375Z,5.99
2023-02-02T09:45:07.422Z,6.14
2023-02-02T09:47:53.156Z,6.16
2023-02-02T09:50:32.139Z,6.25
2023-02-02T09:53:10.386Z,6.30
2023-02-02T09:55:41.176Z,6.32
2023-02-02T09:58:15.173Z,6.22
2023-02-02T10:00:47.879Z,6.25
2023-02-02T10:03:20.430Z,6.20
2023-02-02T10:05:55.825Z,6.28
2023-02-02T10:08:35.112Z,6.38
2023-02-02T10:11:25.157Z,6.49
2023-02-02T10:13:58.578Z,6.69
2023-02-02T10:16:26.935Z,6.91
2023-02-02T10:19:04.062Z,6.95
2023-02-02T10:21:40.437Z,6.95
2023-02-02T10:24:19.337Z,6.85
2023-02-02T10:27:15.141Z,7.00
2023-02-02T10:29:52.317Z,6.75
2023-02-02T10:32:26.199Z,6.86
2023-02-02T10:35:18.340Z,6.90
2023-02-02T10:37:54.182Z,6.48
2023-02-02T10:40:39.036Z,6.70
2023-02-02T10:43:40.795Z,6.60
2023-02-02T10:46:16.293Z,6.69
2023-02-02T10:48:47.431Z,6.63
2023-02-02T10:51:21.239Z,6.70
2023-02-02T10:53:53.985Z,6.64
2023-02-02T10:56:27.214Z,6.58
2023-02-02T10:59:02.351Z,6.62
2023-02-02T11:01:31.546Z,6.73
2023-02-02T11:04:19.291Z,6.76
2023-02-02T11:06:52.970Z,6.57
2023-02-02T11:09:26.138Z,6.67
2023-02-02T11:12:00.887Z,6.69
2023-02-02T11:14:45.224Z,6.73
2023-02-02T11:17:21.783Z,6.78
2023-02-02T11:19:50.971Z,6.73
2023-02-02T11:22:28.180Z,6.72
2023-02-02T11:24:57.955Z,6.81
2023-02-02T11:27:33.348Z,6.81
2023-02-02T11:30:10.924Z,6.63
2023-02-02T11:32:40.480Z,6.74
2023-02-02T11:35:24.906Z,6.59
2023-02-02T11:37:59.023Z,6.50
2023-02-02T11:40:38.764Z,6.46
2023-02-02T11:43:16.658Z,6.56
2023-02-02T11:45:46.070Z,6.50
2023-02-02T11:48:18.912Z,6.70
2023-02-02T11:50:49.077Z,6.76
2023-02-02T11:53:49.292Z,6.64
2023-02-02T11:56:28.141Z,6.48
2023-02-02T11:59:06.670Z,6.43
2023-02-02T12:01:46.176Z,6.46
2023-02-02T12:04:26.170Z,6.50
2023-02-02T12:06:54.316Z,6.76
2023-02-02T12:09:24.546Z,6.72
2023-02-02T12:12:03.180Z,6.59
2023-02-02T12:14:39.700Z,6.56
2023-02-02T12:17:20.303Z,6.42
2023-02-02T12:20:06.005Z,6.45
2023-02-02T12:23:10.114Z,6.59
2023-02-02T12:25:50.976Z,6.46
2023-02-02T12:28:31.358Z,6.46
2023-02-02T12:31:07.506Z,6.53
2023-02-02T12:33:47.238Z,6.40
2023-02-02T12:36:37.810Z,6.38
2023-02-02T12:39:21.240Z,6.49
2023-02-02T12:42:07.071Z,6.42
2023-02-02T12:44:45.957Z,6.44
2023-02-02T12:47:23.772Z,6.37
2023-02-02T12:50:10.543Z,6.41
2023-02-02T12:52:56.240Z,6.35
2023-02-02T12:55:30.918Z,6.43
2023-02-02T12:58:10.395Z,6.46
2023-02-02T13:01:19.250Z,6.40
2023-02-02T13:04:07.770Z,6.35
2023-02-02T13:07:08.284Z,6.41
2023-02-02T13:09:43.975Z,6.45
2023-02-02T13:12:15.657Z,6.48
2023-02-02T13:14:58.666Z,6.50
2023-02-02T13:17:35.022Z,6.51
2023-02-02T13:20:08.573Z,6.61
2023-02-02T13:22:44.138Z,6.61
2023-02-02T13:25:21.009Z,6.55
2023-02-02T13:27:50.105Z,6.37
2023-02-02T13:30:28.415Z,6.38
2023-02-02T13:33:01.368Z,6.30
2023-02-02T13:35:35.188Z,6.32
2023-02-02T13:38:29.521Z,6.42
2023-02-02T13:41:01.592Z,6.15
2023-02-02T13:43:44.134Z,6.26
2023-02-02T13:46:42.461Z,6.27
2023-02-02T13:49:13.578Z,6.27
2023-02-02T13:51:55.055Z,6.29
2023-02-02T13:54:57.949Z,6.34
2023-02-02T13:58:00.273Z,6.30
2023-02-02T14:00:33.677Z,6.37
2023-02-02T14:03:06.074Z,6.21
2023-02-02T14:05:38.360Z,6.27
2023-02-02T14:08:09.238Z,6.24
2023-02-02T14:10:40.971Z,6.35
2023-02-02T14:13:38.362Z,6.38
2023-02-02T14:16:08.819Z,6.32
2023-02-02T14:18:56.567Z,6.35
2023-02-02T14:22:07.816Z,6.39
2023-02-02T14:24:48.214Z,6.42
2023-02-02T14:27:55.994Z,6.51
2023-02-02T14:30:34.219Z,6.53
2023-02-02T14:33:47.513Z,6.51
2023-02-02T14:36:17.669Z,6.55
2023-02-02T14:39:01.000Z,6.63
2023-02-02T14:42:00.997Z,6.54
2023-02-02T14:44:30.679Z,6.71
2023-02-02T14:47:00.216Z,6.74
2023-02-02T14:49:36.458Z,6.73
2023-02-02T14:52:05.445Z,6.84
2023-02-02T14:54:38.311Z,6.86
2023-02-02T14:57:22.182Z,6.95
2023-02-02T14:59:52.704Z,6.94
2023-02-02T15:02:25.484Z,6.95
2023-02-02T15:04:53.519Z,7.14
2023-02-02T15:07:51.900Z,7.04
2023-02-02T15:10:53.885Z,7.05
2023-02-02T15:13:23.930Z,6.94
2023-02-02T15:15:59.323Z,7.04
2023-02-02T15:18:38.132Z,7.02
2023-02-02T15:21:27.668Z,7.07
2023-02-02T15:23:56.959Z,6.99
2023-02-02T15:26:44.261Z,7.03
2023-02-02T15:29:20.323Z,7.08
2023-02-02T15:31:56.731Z,7.10
2023-02-02T15:34:40.056Z,7.05
2023-02-02T15:37:13.671Z,7.08
2023-02-02T15:39:48.971Z,7.07
2023-02-02T15:42:37.513Z,7.03
2023-02-02T15:45:06.450Z,7.02
2023-02-02T15:47:37.440Z,6.99
2023-02-02T15:50:20.310Z,7.02
2023-02-02T15:52:50.308Z,7.09
2023-02-02T15:55:24.583Z,7.04
2023-02-02T15:57:58.308Z,7.00
2023-02-02T16:00:30.762Z,7.07
2023-02-02T16:03:13.370Z,6.99
2023-02-02T16:05:53.607Z,6.98
2023-02-02T16:08:27.598Z,6.98
2023-02-02T16:11:04.035Z,6.99
2023-02-02T16:13:40.719Z,6.98
2023-02-02T16:16:32.233Z,6.98
2023-02-02T16:19:06.641Z,6.89
2023-02-02T16:21:39.333Z,6.95
2023-02-02T16:24:15.295Z,6.94
2023-02-02T16:26:43.357Z,6.88
2023-02-02T16:29:17.021Z,6.98
2023-02-02T16:31:47.035Z,6.97
2023-02-02T16:34:19.756Z,6.86
2023-02-02T16:37:07.420Z,7.01
2023-02-02T16:39:35.279Z,6.98
2023-02-02T16:42:10.963Z,7.05
2023-02-02T16:44:40.796Z,7.01
2023-02-02T16:47:30.406Z,6.97
2023-02-02T16:50:20.546Z,7.02
2023-02-02T16:52:55.537Z,7.05
2023-02-02T16:55:24.257Z,7.07
2023-02-02T16:57:52.610Z,7.10
2023-02-02T17:00:23.919Z,7.04
2023-02-02T17:02:57.553Z,7.12
2023-02-02T17:05:29.173Z,7.10
2023-02-02T17:08:00.776Z,7.08
2023-02-02T17:10:34.323Z,7.10
2023-02-02T17:13:03.919Z,7.12
2023-02-02T17:15:37.015Z,7.11
2023-02-02T17:18:06.178Z,7.15
2023-02-02T17:20:34.881Z,7.13
2023-02-02T17:23:09.780Z,7.18
2023-02-02T17:25:41.947Z,7.19
2023-02-02T17:28:13.849Z,7.17
2023-02-02T17:30:42.786Z,7.16
2023-02-02T17:33:14.761Z,7.17
2023-02-02T17:35:53.750Z,7.17
2023-02-02T17:38:28.498Z,7.12
2023-02-02T17:41:01.126Z,7.19
2023-02-02T17:43:35.320Z,7.23
2023-02-02T17:46:07.054Z,7.22
2023-02-02T17:48:37.612Z,7.20
2023-02-02T17:51:07.129Z,7.26
2023-02-02T17:53:51.017Z,7.29
2023-02-02T17:56:20.757Z,7.28
2023-02-02T17:58:48.786Z,7.27
2023-02-02T18:01:18.869Z,7.21
2023-02-02T18:03:47.783Z,7.23
2023-02-02T18:06:15.870Z,7.21
2023-02-02T18:08:45.623Z,7.24
2023-02-02T18:11:15.367Z,7.25
2023-02-02T18:13:44.494Z,7.26
2023-02-02T18:16:14.264Z,7.25
2023-02-02T18:18:42.353Z,7.20
2023-02-02T18:21:14.236Z,7.24
2023-02-02T18:23:43.988Z,7.18
2023-02-02T18:26:17.466Z,7.26
2023-02-02T18:28:48.520Z,7.28
2023-02-02T18:31:19.405Z,7.33
2023-02-02T18:33:48.229Z,7.35
2023-02-02T18:36:19.862Z,7.28
2023-02-02T18:38:49.240Z,7.32
2023-02-02T18:41:21.488Z,7.29
2023-02-02T18:43:52.768Z,7.30
2023-02-02T18:46:20.978Z,7.18
2023-02-02T18:48:58.995Z,7.30
2023-02-02T18:51:34.059Z,7.29
2023-02-02T18:54:02.019Z,7.35
2023-02-02T18:56:31.737Z,7.35
2023-02-02T18:59:00.341Z,7.37
2023-02-02T19:01:28.296Z,7.32
2023-02-02T19:03:57.859Z,7.36
2023-02-02T19:06:45.361Z,7.38
2023-02-02T19:09:17.113Z,7.38
2023-02-02T19:11:47.810Z,7.28
2023-02-02T19:14:20.607Z,7.35
2023-02-02T19:16:49.463Z,7.33
2023-02-02T19:19:30.163Z,7.28
2023-02-02T19:22:03.094Z,7.23
2023-02-02T19:24:43.419Z,7.29
2023-02-02T19:27:18.898Z,7.29
2023-02-02T19:29:48.481Z,7.33
2023-02-02T19:32:32.344Z,7.38
2023-02-02T19:35:37.556Z,7.39
2023-02-02T19:38:42.264Z,7.37
2023-02-02T19:41:18.479Z,7.37
2023-02-02T19:43:48.837Z,7.36
2023-02-02T19:46:21.459Z,7.30
2023-02-02T19:48:53.458Z,7.47
2023-02-02T19:51:34.833Z,7.42
2023-02-02T19:54:03.215Z,7.44
2023-02-02T19:56:39.244Z,7.49
2023-02-02T19:59:20.352Z,7.45
2023-02-02T20:01:50.748Z,7.46
2023-02-02T20:04:20.443Z,7.47
2023-02-02T20:06:58.450Z,7.45
2023-02-02T20:09:34.605Z,7.53
2023-02-02T20:12:14.076Z,7.51
2023-02-02T20:14:43.650Z,7.55
2023-02-02T20:17:24.618Z,7.57
2023-02-02T20:19:52.745Z,7.54
2023-02-02T20:22:26.253Z,7.54
2023-02-02T20:24:54.781Z,7.62
2023-02-02T20:27:26.180Z,7.52
2023-02-02T20:30:01.799Z,7.51
2023-02-02T20:32:38.595Z,7.61
2023-02-02T20:35:23.804Z,7.66
2023-02-02T20:37:51.892Z,7.67
2023-02-02T20:40:25.283Z,7.65
2023-02-02T20:42:53.771Z,7.70
2023-02-02T20:45:23.528Z,7.69
2023-02-02T20:47:51.901Z,7.69
2023-02-02T20:50:22.675Z,7.68
2023-02-02T20:52:53.525Z,7.67
2023-02-02T20:55:21.360Z,7.73
2023-02-02T20:57:49.304Z,7.72
2023-02-02T21:00:19.312Z,7.68
2023-02-02T21:02:49.136Z,7.63
2023-02-02T21:05:17.243Z,7.63
2023-02-02T21:07:45.337Z,7.70
2023-02-02T21:10:13.293Z,7.68
2023-02-02T21:12:48.375Z,7.60
2023-02-02T21:15:19.077Z,7.66
2023-02-02T21:17:48.566Z,7.55
2023-02-02T21:20:16.675Z,7.71
2023-02-02T21:22:44.685Z,7.73
2023-02-02T21:25:13.005Z,7.67
2023-02-02T21:27:42.228Z,7.75
2023-02-02T21:30:19.354Z,7.77
2023-02-02T21:32:50.763Z,7.62
2023-02-02T21:35:19.097Z,7.74
2023-02-02T21:38:01.204Z,7.64
2023-02-02T21:40:50.024Z,7.81
2023-02-02T21:43:19.640Z,7.84
2023-02-02T21:45:51.730Z,7.85
2023-02-02T21:48:33.853Z,7.91
2023-02-02T21:51:20.035Z,7.89
2023-02-02T21:53:48.003Z,7.82
2023-02-02T21:56:33.325Z,8.00
2023-02-02T21:59:01.922Z,7.89
2023-02-02T22:01:35.137Z,7.96
2023-02-02T22:04:13.182Z,7.93
2023-02-02T22:06:46.120Z,7.94
2023-02-02T22:09:19.929Z,8.01
2023-02-02T22:11:55.868Z,7.91
2023-02-02T22:14:28.350Z,8.05
2023-02-02T22:16:58.867Z,8.06
2023-02-02T22:19:34.613Z,8.02
2023-02-02T22:22:16.074Z,7.98
2023-02-02T22:24:45.815Z,7.96
2023-02-02T22:27:25.325Z,7.97
2023-02-02T22:29:58.975Z,8.01
2023-02-02T22:32:26.925Z,8.12
2023-02-02T22:34:56.137Z,7.95
2023-02-02T22:37:24.159Z,8.02
2023-02-02T22:39:53.040Z,8.02
2023-02-02T22:42:26.959Z,8.04
2023-02-02T22:44:54.986Z,8.01
2023-02-02T22:47:22.907Z,8.06
2023-02-02T22:49:50.892Z,8.05
2023-02-02T22:52:20.307Z,8.07
2023-02-02T22:54:48.218Z,8.07
2023-02-02T22:57:16.340Z,8.17
2023-02-02T22:59:44.497Z,8.10
2023-02-02T23:02:24.549Z,8.10
2023-02-02T23:04:52.537Z,8.13
2023-02-02T23:07:21.814Z,8.22
2023-02-02T23:09:49.664Z,8.19
2023-02-02T23:12:17.573Z,8.23
2023-02-02T23:14:45.758Z,8.18
2023-02-02T23:17:13.719Z,8.27
2023-02-02T23:19:41.685Z,8.35
2023-02-02T23:22:09.707Z,8.38
2023-02-02T23:24:39.032Z,8.30
2023-02-02T23:27:07.247Z,8.34
2023-02-02T23:29:38.489Z,8.33
2023-02-02T23:32:07.844Z,8.26
2023-02-02T23:34:36.842Z,8.29
2023-02-02T23:37:04.811Z,8.31
2023-02-02T23:39:32.710Z,8.33
2023-02-02T23:42:02.088Z,8.37
2023-02-02T23:44:30.103Z,8.42
2023-02-02T23:46:58.955Z,8.37
2023-02-02T23:49:27.074Z,8.36
2023-02-02T23:51:56.189Z,8.36
2023-02-02T23:54:24.363Z,8.45
2023-02-02T23:56:52.994Z,8.41
2023-02-02T23:59:29.673Z,8.52
